sensor_id;sensor_type;location;lat;lon;timestamp;temperature;humidity
11497;DHT22;5805;51.542;7.230;2022-08-19T00:01:54;21.90;99.90
11497;DHT22;5805;51.542;7.230;2022-08-19T00:04:25;21.90;99.90
11497;DHT22;5805;51.542;7.230;2022-08-19T00:06:51;21.90;99.90
11497;DHT22;5805;51.542;7.230;2022-08-19T00:09:18;21.80;99.90
11497;DHT22;5805;51.542;7.230;2022-08-19T00:11:45;21.80;99.90
11497;DHT22;5805;51.542;7.230;2022-08-19T00:14:13;21.80;99.90
11497;DHT22;5805;51.542;7.230;2022-08-19T00:16:40;21.80;99.90
11497;DHT22;5805;51.542;7.230;2022-08-19T00:19:07;21.70;99.90
11497;DHT22;5805;51.542;7.230;2022-08-19T00:21:34;21.70;99.90
11497;DHT22;5805;51.542;7.230;2022-08-19T00:24:00;21.70;99.90
11497;DHT22;5805;51.542;7.230;2022-08-19T00:26:26;21.70;99.90
11497;DHT22;5805;51.542;7.230;2022-08-19T00:28:52;21.60;99.90
11497;DHT22;5805;51.542;7.230;2022-08-19T00:31:18;21.60;99.90
11497;DHT22;5805;51.542;7.230;2022-08-19T00:33:43;21.60;99.90
11497;DHT22;5805;51.542;7.230;2022-08-19T00:36:10;21.60;99.90
11497;DHT22;5805;51.542;7.230;2022-08-19T00:38:38;21.60;99.90
11497;DHT22;5805;51.542;7.230;2022-08-19T00:41:05;21.50;99.90
11497;DHT22;5805;51.542;7.230;2022-08-19T00:43:31;21.50;99.90
11497;DHT22;5805;51.542;7.230;2022-08-19T00:45:56;21.50;99.90
11497;DHT22;5805;51.542;7.230;2022-08-19T00:48:22;21.40;99.90
11497;DHT22;5805;51.542;7.230;2022-08-19T00:50:49;21.40;99.90
11497;DHT22;5805;51.542;7.230;2022-08-19T00:53:19;21.40;99.90
11497;DHT22;5805;51.542;7.230;2022-08-19T00:55:48;21.40;99.90
11497;DHT22;5805;51.542;7.230;2022-08-19T00:58:19;21.40;99.90
11497;DHT22;5805;51.542;7.230;2022-08-19T01:00:47;21.30;99.90
11497;DHT22;5805;51.542;7.230;2022-08-19T01:03:14;21.30;99.90
11497;DHT22;5805;51.542;7.230;2022-08-19T01:05:42;21.30;99.90
11497;DHT22;5805;51.542;7.230;2022-08-19T01:08:08;21.30;99.90
11497;DHT22;5805;51.542;7.230;2022-08-19T01:10:39;21.30;99.90
11497;DHT22;5805;51.542;7.230;2022-08-19T01:13:07;21.20;99.90
11497;DHT22;5805;51.542;7.230;2022-08-19T01:15:38;21.20;99.90
11497;DHT22;5805;51.542;7.230;2022-08-19T01:18:08;21.20;99.90
11497;DHT22;5805;51.542;7.230;2022-08-19T01:20:34;21.20;99.90
11497;DHT22;5805;51.542;7.230;2022-08-19T01:23:02;21.20;99.90
11497;DHT22;5805;51.542;7.230;2022-08-19T01:25:31;21.10;99.90
11497;DHT22;5805;51.542;7.230;2022-08-19T01:27:58;21.10;99.90
11497;DHT22;5805;51.542;7.230;2022-08-19T01:30:26;21.10;99.90
11497;DHT22;5805;51.542;7.230;2022-08-19T01:32:53;21.10;99.90
11497;DHT22;5805;51.542;7.230;2022-08-19T01:35:20;21.00;99.90
11497;DHT22;5805;51.542;7.230;2022-08-19T01:37:49;21.00;99.90
11497;DHT22;5805;51.542;7.230;2022-08-19T01:40:19;21.00;99.90
11497;DHT22;5805;51.542;7.230;2022-08-19T01:42:45;21.00;99.90
11497;DHT22;5805;51.542;7.230;2022-08-19T01:45:11;21.00;99.90
11497;DHT22;5805;51.542;7.230;2022-08-19T01:47:37;21.00;99.90
11497;DHT22;5805;51.542;7.230;2022-08-19T01:50:04;21.00;99.90
11497;DHT22;5805;51.542;7.230;2022-08-19T01:52:30;21.00;99.90
11497;DHT22;5805;51.542;7.230;2022-08-19T01:54:57;21.00;99.90
11497;DHT22;5805;51.542;7.230;2022-08-19T01:57:24;21.00;99.90
11497;DHT22;5805;51.542;7.230;2022-08-19T01:59:50;21.00;99.90
11497;DHT22;5805;51.542;7.230;2022-08-19T02:02:16;20.90;99.90
11497;DHT22;5805;51.542;7.230;2022-08-19T02:04:42;20.90;99.90
11497;DHT22;5805;51.542;7.230;2022-08-19T02:07:08;20.90;99.90
11497;DHT22;5805;51.542;7.230;2022-08-19T02:09:33;20.90;99.90
11497;DHT22;5805;51.542;7.230;2022-08-19T02:11:59;20.80;99.90
11497;DHT22;5805;51.542;7.230;2022-08-19T02:14:26;20.80;99.90
11497;DHT22;5805;51.542;7.230;2022-08-19T02:16:52;20.70;99.90
11497;DHT22;5805;51.542;7.230;2022-08-19T02:19:18;20.70;99.90
11497;DHT22;5805;51.542;7.230;2022-08-19T02:21:43;20.70;99.90
11497;DHT22;5805;51.542;7.230;2022-08-19T02:24:10;20.70;99.90
11497;DHT22;5805;51.542;7.230;2022-08-19T02:26:35;20.70;99.90
11497;DHT22;5805;51.542;7.230;2022-08-19T02:29:01;20.70;99.90
11497;DHT22;5805;51.542;7.230;2022-08-19T02:31:28;20.70;99.90
11497;DHT22;5805;51.542;7.230;2022-08-19T02:33:54;20.70;99.90
11497;DHT22;5805;51.542;7.230;2022-08-19T02:36:20;20.70;99.90
11497;DHT22;5805;51.542;7.230;2022-08-19T02:38:45;20.70;99.90
11497;DHT22;5805;51.542;7.230;2022-08-19T02:41:14;20.70;99.90
11497;DHT22;5805;51.542;7.230;2022-08-19T02:43:40;20.70;99.90
11497;DHT22;5805;51.542;7.230;2022-08-19T02:46:12;20.70;99.90
11497;DHT22;5805;51.542;7.230;2022-08-19T02:48:39;20.70;99.90
11497;DHT22;5805;51.542;7.230;2022-08-19T02:51:05;20.70;99.90
11497;DHT22;5805;51.542;7.230;2022-08-19T02:53:31;20.70;99.90
11497;DHT22;5805;51.542;7.230;2022-08-19T02:55:56;20.70;99.90
11497;DHT22;5805;51.542;7.230;2022-08-19T02:58:22;20.70;99.90
11497;DHT22;5805;51.542;7.230;2022-08-19T03:00:50;20.70;99.90
11497;DHT22;5805;51.542;7.230;2022-08-19T03:03:18;20.70;99.90
11497;DHT22;5805;51.542;7.230;2022-08-19T03:05:45;20.60;99.90
11497;DHT22;5805;51.542;7.230;2022-08-19T03:08:12;20.70;99.90
11497;DHT22;5805;51.542;7.230;2022-08-19T03:10:42;20.60;99.90
11497;DHT22;5805;51.542;7.230;2022-08-19T03:13:08;20.60;99.90
11497;DHT22;5805;51.542;7.230;2022-08-19T03:15:34;20.60;99.90
11497;DHT22;5805;51.542;7.230;2022-08-19T03:18:00;20.60;99.90
11497;DHT22;5805;51.542;7.230;2022-08-19T03:20:25;20.60;99.90
11497;DHT22;5805;51.542;7.230;2022-08-19T03:22:52;20.60;99.90
11497;DHT22;5805;51.542;7.230;2022-08-19T03:25:18;20.50;99.90
11497;DHT22;5805;51.542;7.230;2022-08-19T03:27:44;20.50;99.90
11497;DHT22;5805;51.542;7.230;2022-08-19T03:30:11;20.50;99.90
11497;DHT22;5805;51.542;7.230;2022-08-19T03:32:36;20.50;99.90
11497;DHT22;5805;51.542;7.230;2022-08-19T03:35:03;20.50;99.90
11497;DHT22;5805;51.542;7.230;2022-08-19T03:37:28;20.50;99.90
11497;DHT22;5805;51.542;7.230;2022-08-19T03:39:55;20.50;99.90
11497;DHT22;5805;51.542;7.230;2022-08-19T03:42:21;20.50;99.90
11497;DHT22;5805;51.542;7.230;2022-08-19T03:44:47;20.50;99.90
11497;DHT22;5805;51.542;7.230;2022-08-19T03:47:12;20.40;99.90
11497;DHT22;5805;51.542;7.230;2022-08-19T03:49:38;20.40;99.90
11497;DHT22;5805;51.542;7.230;2022-08-19T03:52:04;20.60;99.90
11497;DHT22;5805;51.542;7.230;2022-08-19T03:54:30;20.40;99.90
11497;DHT22;5805;51.542;7.230;2022-08-19T03:56:57;20.40;99.90
11497;DHT22;5805;51.542;7.230;2022-08-19T03:59:26;20.40;99.90
11497;DHT22;5805;51.542;7.230;2022-08-19T04:01:53;20.30;99.90
11497;DHT22;5805;51.542;7.230;2022-08-19T04:04:19;20.30;99.90
11497;DHT22;5805;51.542;7.230;2022-08-19T04:06:45;20.30;99.90
11497;DHT22;5805;51.542;7.230;2022-08-19T04:09:11;20.30;99.90
11497;DHT22;5805;51.542;7.230;2022-08-19T04:11:39;20.30;99.90
11497;DHT22;5805;51.542;7.230;2022-08-19T04:14:06;20.30;99.90
11497;DHT22;5805;51.542;7.230;2022-08-19T04:16:32;20.30;99.90
11497;DHT22;5805;51.542;7.230;2022-08-19T04:19:00;20.20;99.90
11497;DHT22;5805;51.542;7.230;2022-08-19T04:21:27;20.20;99.90
11497;DHT22;5805;51.542;7.230;2022-08-19T04:23:54;20.20;99.90
11497;DHT22;5805;51.542;7.230;2022-08-19T04:26:22;20.20;99.90
11497;DHT22;5805;51.542;7.230;2022-08-19T04:28:48;20.40;99.90
11497;DHT22;5805;51.542;7.230;2022-08-19T04:31:17;20.20;99.90
11497;DHT22;5805;51.542;7.230;2022-08-19T04:33:43;20.20;99.90
11497;DHT22;5805;51.542;7.230;2022-08-19T04:36:16;20.20;99.90
11497;DHT22;5805;51.542;7.230;2022-08-19T04:38:42;20.30;99.90
11497;DHT22;5805;51.542;7.230;2022-08-19T04:41:07;20.30;99.90
11497;DHT22;5805;51.542;7.230;2022-08-19T04:43:35;20.20;99.90
11497;DHT22;5805;51.542;7.230;2022-08-19T04:46:04;20.30;99.90
11497;DHT22;5805;51.542;7.230;2022-08-19T04:48:31;20.30;99.90
11497;DHT22;5805;51.542;7.230;2022-08-19T04:50:58;20.30;99.90
11497;DHT22;5805;51.542;7.230;2022-08-19T04:53:24;20.30;99.90
11497;DHT22;5805;51.542;7.230;2022-08-19T04:55:50;20.30;99.90
11497;DHT22;5805;51.542;7.230;2022-08-19T04:58:16;20.40;99.90
11497;DHT22;5805;51.542;7.230;2022-08-19T05:00:41;20.40;99.90
11497;DHT22;5805;51.542;7.230;2022-08-19T05:03:07;20.50;99.90
11497;DHT22;5805;51.542;7.230;2022-08-19T05:05:38;20.50;99.90
11497;DHT22;5805;51.542;7.230;2022-08-19T05:08:04;20.50;99.90
11497;DHT22;5805;51.542;7.230;2022-08-19T05:10:30;20.60;99.90
11497;DHT22;5805;51.542;7.230;2022-08-19T05:12:56;20.60;99.90
11497;DHT22;5805;51.542;7.230;2022-08-19T05:15:21;20.70;99.90
11497;DHT22;5805;51.542;7.230;2022-08-19T05:17:47;20.90;99.90
11497;DHT22;5805;51.542;7.230;2022-08-19T05:20:12;20.90;99.90
11497;DHT22;5805;51.542;7.230;2022-08-19T05:22:40;21.00;99.90
11497;DHT22;5805;51.542;7.230;2022-08-19T05:25:08;21.10;99.90
11497;DHT22;5805;51.542;7.230;2022-08-19T05:27:35;21.20;99.90
11497;DHT22;5805;51.542;7.230;2022-08-19T05:30:01;21.30;99.90
11497;DHT22;5805;51.542;7.230;2022-08-19T05:32:26;21.30;99.90
11497;DHT22;5805;51.542;7.230;2022-08-19T05:34:52;21.30;99.90
11497;DHT22;5805;51.542;7.230;2022-08-19T05:37:18;21.40;99.90
11497;DHT22;5805;51.542;7.230;2022-08-19T05:39:45;21.50;99.90
11497;DHT22;5805;51.542;7.230;2022-08-19T05:42:12;21.60;99.90
11497;DHT22;5805;51.542;7.230;2022-08-19T05:44:39;21.70;99.90
11497;DHT22;5805;51.542;7.230;2022-08-19T05:47:07;21.80;99.90
11497;DHT22;5805;51.542;7.230;2022-08-19T05:49:33;22.00;99.90
11497;DHT22;5805;51.542;7.230;2022-08-19T05:52:02;22.10;99.90
11497;DHT22;5805;51.542;7.230;2022-08-19T05:54:28;22.20;99.90
11497;DHT22;5805;51.542;7.230;2022-08-19T05:56:55;22.40;99.90
11497;DHT22;5805;51.542;7.230;2022-08-19T05:59:20;22.40;99.90
11497;DHT22;5805;51.542;7.230;2022-08-19T06:01:47;22.60;99.90
11497;DHT22;5805;51.542;7.230;2022-08-19T06:04:13;22.70;99.90
11497;DHT22;5805;51.542;7.230;2022-08-19T06:06:39;22.80;99.90
11497;DHT22;5805;51.542;7.230;2022-08-19T06:09:06;22.80;99.90
11497;DHT22;5805;51.542;7.230;2022-08-19T06:11:35;22.90;99.90
11497;DHT22;5805;51.542;7.230;2022-08-19T06:14:05;22.90;99.90
11497;DHT22;5805;51.542;7.230;2022-08-19T06:16:31;22.90;99.90
11497;DHT22;5805;51.542;7.230;2022-08-19T06:18:59;22.90;99.90
11497;DHT22;5805;51.542;7.230;2022-08-19T06:21:27;23.00;99.90
11497;DHT22;5805;51.542;7.230;2022-08-19T06:23:54;23.10;99.90
11497;DHT22;5805;51.542;7.230;2022-08-19T06:26:20;23.20;99.90
11497;DHT22;5805;51.542;7.230;2022-08-19T06:28:47;23.30;99.90
11497;DHT22;5805;51.542;7.230;2022-08-19T06:31:15;23.30;99.90
11497;DHT22;5805;51.542;7.230;2022-08-19T06:33:42;23.40;99.90
11497;DHT22;5805;51.542;7.230;2022-08-19T06:36:16;23.50;99.90
11497;DHT22;5805;51.542;7.230;2022-08-19T06:38:42;23.70;99.90
11497;DHT22;5805;51.542;7.230;2022-08-19T06:41:08;23.80;99.90
11497;DHT22;5805;51.542;7.230;2022-08-19T06:43:34;23.90;99.90
11497;DHT22;5805;51.542;7.230;2022-08-19T06:45:59;24.00;99.90
11497;DHT22;5805;51.542;7.230;2022-08-19T06:48:27;24.10;99.90
11497;DHT22;5805;51.542;7.230;2022-08-19T06:50:52;24.10;99.90
11497;DHT22;5805;51.542;7.230;2022-08-19T06:53:18;24.20;99.90
11497;DHT22;5805;51.542;7.230;2022-08-19T06:55:44;24.10;99.90
11497;DHT22;5805;51.542;7.230;2022-08-19T06:58:09;24.20;99.90
11497;DHT22;5805;51.542;7.230;2022-08-19T07:00:36;24.30;99.90
11497;DHT22;5805;51.542;7.230;2022-08-19T07:03:02;24.40;99.90
11497;DHT22;5805;51.542;7.230;2022-08-19T07:05:30;24.30;99.90
11497;DHT22;5805;51.542;7.230;2022-08-19T07:07:55;24.40;99.90
11497;DHT22;5805;51.542;7.230;2022-08-19T07:10:21;24.30;99.90
11497;DHT22;5805;51.542;7.230;2022-08-19T07:12:47;24.30;99.90
11497;DHT22;5805;51.542;7.230;2022-08-19T07:15:12;24.30;99.90
11497;DHT22;5805;51.542;7.230;2022-08-19T07:17:38;24.30;99.90
11497;DHT22;5805;51.542;7.230;2022-08-19T07:20:05;24.30;99.90
11497;DHT22;5805;51.542;7.230;2022-08-19T07:22:33;24.30;99.90
11497;DHT22;5805;51.542;7.230;2022-08-19T07:24:59;24.30;99.90
11497;DHT22;5805;51.542;7.230;2022-08-19T07:27:24;24.20;99.90
11497;DHT22;5805;51.542;7.230;2022-08-19T07:29:51;24.20;99.90
11497;DHT22;5805;51.542;7.230;2022-08-19T07:32:16;24.20;99.90
11497;DHT22;5805;51.542;7.230;2022-08-19T07:34:42;24.20;99.90
11497;DHT22;5805;51.542;7.230;2022-08-19T07:37:08;24.30;99.90
11497;DHT22;5805;51.542;7.230;2022-08-19T07:39:36;24.30;99.90
11497;DHT22;5805;51.542;7.230;2022-08-19T07:42:05;24.50;99.90
11497;DHT22;5805;51.542;7.230;2022-08-19T07:44:31;24.50;99.90
11497;DHT22;5805;51.542;7.230;2022-08-19T07:46:57;24.60;99.90
11497;DHT22;5805;51.542;7.230;2022-08-19T07:49:24;24.60;99.90
11497;DHT22;5805;51.542;7.230;2022-08-19T07:51:53;24.80;99.90
11497;DHT22;5805;51.542;7.230;2022-08-19T07:54:20;25.00;99.90
11497;DHT22;5805;51.542;7.230;2022-08-19T07:56:48;25.20;99.90
11497;DHT22;5805;51.542;7.230;2022-08-19T07:59:14;25.30;99.90
11497;DHT22;5805;51.542;7.230;2022-08-19T08:01:40;25.40;99.90
11497;DHT22;5805;51.542;7.230;2022-08-19T08:04:06;25.50;99.90
11497;DHT22;5805;51.542;7.230;2022-08-19T08:06:32;25.70;99.90
11497;DHT22;5805;51.542;7.230;2022-08-19T08:08:58;25.80;99.90
11497;DHT22;5805;51.542;7.230;2022-08-19T08:11:24;26.00;99.90
11497;DHT22;5805;51.542;7.230;2022-08-19T08:13:51;26.20;99.90
11497;DHT22;5805;51.542;7.230;2022-08-19T08:16:17;26.40;99.90
11497;DHT22;5805;51.542;7.230;2022-08-19T08:18:42;26.70;99.90
11497;DHT22;5805;51.542;7.230;2022-08-19T08:21:08;27.20;99.90
11497;DHT22;5805;51.542;7.230;2022-08-19T08:23:34;27.60;99.90
11497;DHT22;5805;51.542;7.230;2022-08-19T08:26:00;27.90;99.90
11497;DHT22;5805;51.542;7.230;2022-08-19T08:28:26;28.20;99.90
11497;DHT22;5805;51.542;7.230;2022-08-19T08:30:53;28.40;99.70
11497;DHT22;5805;51.542;7.230;2022-08-19T08:33:20;28.40;99.10
11497;DHT22;5805;51.542;7.230;2022-08-19T08:35:46;28.40;98.60
11497;DHT22;5805;51.542;7.230;2022-08-19T08:38:12;28.30;98.30
11497;DHT22;5805;51.542;7.230;2022-08-19T08:40:43;28.30;98.50
11497;DHT22;5805;51.542;7.230;2022-08-19T08:43:19;28.40;98.00
11497;DHT22;5805;51.542;7.230;2022-08-19T08:45:50;28.60;98.00
11497;DHT22;5805;51.542;7.230;2022-08-19T08:48:22;28.80;96.70
11497;DHT22;5805;51.542;7.230;2022-08-19T08:50:49;28.90;96.50
11497;DHT22;5805;51.542;7.230;2022-08-19T08:53:17;29.00;95.80
11497;DHT22;5805;51.542;7.230;2022-08-19T08:55:44;29.00;95.90
11497;DHT22;5805;51.542;7.230;2022-08-19T08:58:14;29.00;95.20
11497;DHT22;5805;51.542;7.230;2022-08-19T09:00:45;28.90;94.70
11497;DHT22;5805;51.542;7.230;2022-08-19T09:03:17;28.80;95.20
11497;DHT22;5805;51.542;7.230;2022-08-19T09:05:52;28.80;95.20
11497;DHT22;5805;51.542;7.230;2022-08-19T09:08:34;28.80;95.40
11497;DHT22;5805;51.542;7.230;2022-08-19T09:11:07;28.80;95.10
11497;DHT22;5805;51.542;7.230;2022-08-19T09:13:44;29.00;95.50
11497;DHT22;5805;51.542;7.230;2022-08-19T09:16:16;29.20;94.20
11497;DHT22;5805;51.542;7.230;2022-08-19T09:18:44;29.30;93.60
11497;DHT22;5805;51.542;7.230;2022-08-19T09:21:11;29.30;93.50
11497;DHT22;5805;51.542;7.230;2022-08-19T09:23:37;29.30;93.30
11497;DHT22;5805;51.542;7.230;2022-08-19T09:26:07;29.10;93.00
11497;DHT22;5805;51.542;7.230;2022-08-19T09:28:33;28.80;91.80
11497;DHT22;5805;51.542;7.230;2022-08-19T09:30:59;28.50;92.50
11497;DHT22;5805;51.542;7.230;2022-08-19T09:33:24;28.30;93.50
11497;DHT22;5805;51.542;7.230;2022-08-19T09:35:50;28.40;93.90
11497;DHT22;5805;51.542;7.230;2022-08-19T09:38:27;28.50;93.50
11497;DHT22;5805;51.542;7.230;2022-08-19T09:40:53;28.60;92.90
11497;DHT22;5805;51.542;7.230;2022-08-19T09:43:18;28.70;92.40
11497;DHT22;5805;51.542;7.230;2022-08-19T09:45:44;28.80;92.20
11497;DHT22;5805;51.542;7.230;2022-08-19T09:48:10;28.90;92.10
11497;DHT22;5805;51.542;7.230;2022-08-19T09:50:36;29.10;91.30
11497;DHT22;5805;51.542;7.230;2022-08-19T09:53:01;29.10;90.50
11497;DHT22;5805;51.542;7.230;2022-08-19T09:55:28;29.20;90.90
11497;DHT22;5805;51.542;7.230;2022-08-19T09:57:54;29.30;90.60
11497;DHT22;5805;51.542;7.230;2022-08-19T10:00:20;29.30;90.10
11497;DHT22;5805;51.542;7.230;2022-08-19T10:02:46;31.10;90.20
11497;DHT22;5805;51.542;7.230;2022-08-19T10:05:11;29.40;87.40
11497;DHT22;5805;51.542;7.230;2022-08-19T10:07:37;29.40;85.80
11497;DHT22;5805;51.542;7.230;2022-08-19T10:10:04;29.30;86.20
11497;DHT22;5805;51.542;7.230;2022-08-19T10:12:31;29.30;86.20
11497;DHT22;5805;51.542;7.230;2022-08-19T10:14:57;29.30;86.60
11497;DHT22;5805;51.542;7.230;2022-08-19T10:17:23;29.20;85.70
11497;DHT22;5805;51.542;7.230;2022-08-19T10:19:49;29.00;84.60
11497;DHT22;5805;51.542;7.230;2022-08-19T10:22:14;28.90;85.40
11497;DHT22;5805;51.542;7.230;2022-08-19T10:24:40;28.80;86.00
11497;DHT22;5805;51.542;7.230;2022-08-19T10:27:06;28.90;86.70
11497;DHT22;5805;51.542;7.230;2022-08-19T10:29:34;29.20;85.40
11497;DHT22;5805;51.542;7.230;2022-08-19T10:32:00;29.40;84.90
11497;DHT22;5805;51.542;7.230;2022-08-19T10:34:27;29.60;81.50
11497;DHT22;5805;51.542;7.230;2022-08-19T10:36:53;29.80;80.40
11497;DHT22;5805;51.542;7.230;2022-08-19T10:39:19;30.00;79.10
11497;DHT22;5805;51.542;7.230;2022-08-19T10:41:45;30.20;79.20
11497;DHT22;5805;51.542;7.230;2022-08-19T10:44:12;30.30;75.50
11497;DHT22;5805;51.542;7.230;2022-08-19T10:46:41;30.30;73.70
11497;DHT22;5805;51.542;7.230;2022-08-19T10:49:08;30.40;73.00
11497;DHT22;5805;51.542;7.230;2022-08-19T10:51:34;30.30;72.80
11497;DHT22;5805;51.542;7.230;2022-08-19T10:54:01;30.20;71.80
11497;DHT22;5805;51.542;7.230;2022-08-19T10:56:27;30.20;71.20
11497;DHT22;5805;51.542;7.230;2022-08-19T10:58:53;30.20;71.40
11497;DHT22;5805;51.542;7.230;2022-08-19T11:01:19;30.20;71.30
11497;DHT22;5805;51.542;7.230;2022-08-19T11:03:46;30.10;71.90
11497;DHT22;5805;51.542;7.230;2022-08-19T11:06:11;30.10;72.40
11497;DHT22;5805;51.542;7.230;2022-08-19T11:08:38;30.20;71.50
11497;DHT22;5805;51.542;7.230;2022-08-19T11:11:05;30.30;70.80
11497;DHT22;5805;51.542;7.230;2022-08-19T11:13:35;30.30;71.00
11497;DHT22;5805;51.542;7.230;2022-08-19T11:16:03;30.30;70.00
11497;DHT22;5805;51.542;7.230;2022-08-19T11:18:29;30.00;69.70
11497;DHT22;5805;51.542;7.230;2022-08-19T11:21:05;29.70;70.80
11497;DHT22;5805;51.542;7.230;2022-08-19T11:23:31;29.40;71.60
11497;DHT22;5805;51.542;7.230;2022-08-19T11:25:56;29.20;72.80
11497;DHT22;5805;51.542;7.230;2022-08-19T11:28:22;29.10;74.10
11497;DHT22;5805;51.542;7.230;2022-08-19T11:30:48;29.20;74.60
11497;DHT22;5805;51.542;7.230;2022-08-19T11:33:13;29.20;75.20
11497;DHT22;5805;51.542;7.230;2022-08-19T11:35:39;29.30;76.20
11497;DHT22;5805;51.542;7.230;2022-08-19T11:38:06;29.30;75.50
11497;DHT22;5805;51.542;7.230;2022-08-19T11:40:32;29.40;75.60
11497;DHT22;5805;51.542;7.230;2022-08-19T11:42:58;29.40;75.00
11497;DHT22;5805;51.542;7.230;2022-08-19T11:45:24;29.30;75.80
11497;DHT22;5805;51.542;7.230;2022-08-19T11:47:50;29.30;75.50
11497;DHT22;5805;51.542;7.230;2022-08-19T11:50:17;29.30;74.80
11497;DHT22;5805;51.542;7.230;2022-08-19T11:52:43;29.30;72.80
11497;DHT22;5805;51.542;7.230;2022-08-19T11:55:11;29.30;73.20
11497;DHT22;5805;51.542;7.230;2022-08-19T11:57:36;29.40;73.30
11497;DHT22;5805;51.542;7.230;2022-08-19T12:00:04;29.40;72.90
11497;DHT22;5805;51.542;7.230;2022-08-19T12:02:29;29.30;73.60
11497;DHT22;5805;51.542;7.230;2022-08-19T12:04:55;29.20;74.00
11497;DHT22;5805;51.542;7.230;2022-08-19T12:07:21;29.20;74.20
11497;DHT22;5805;51.542;7.230;2022-08-19T12:09:46;29.20;74.80
11497;DHT22;5805;51.542;7.230;2022-08-19T12:12:14;29.20;74.60
11497;DHT22;5805;51.542;7.230;2022-08-19T12:14:39;29.10;74.50
11497;DHT22;5805;51.542;7.230;2022-08-19T12:17:05;29.00;74.90
11497;DHT22;5805;51.542;7.230;2022-08-19T12:19:31;29.10;74.70
11497;DHT22;5805;51.542;7.230;2022-08-19T12:21:58;29.00;74.40
11497;DHT22;5805;51.542;7.230;2022-08-19T12:24:24;29.00;74.40
11497;DHT22;5805;51.542;7.230;2022-08-19T12:26:50;29.00;75.00
11497;DHT22;5805;51.542;7.230;2022-08-19T12:29:17;29.00;74.70
11497;DHT22;5805;51.542;7.230;2022-08-19T12:31:43;29.00;74.30
11497;DHT22;5805;51.542;7.230;2022-08-19T12:34:09;29.00;73.20
11497;DHT22;5805;51.542;7.230;2022-08-19T12:36:34;29.00;72.40
11497;DHT22;5805;51.542;7.230;2022-08-19T12:39:00;29.10;71.20
11497;DHT22;5805;51.542;7.230;2022-08-19T12:41:26;29.10;70.00
11497;DHT22;5805;51.542;7.230;2022-08-19T12:43:52;29.20;69.50
11497;DHT22;5805;51.542;7.230;2022-08-19T12:46:19;29.40;68.30
11497;DHT22;5805;51.542;7.230;2022-08-19T12:48:45;29.60;68.90
11497;DHT22;5805;51.542;7.230;2022-08-19T12:51:14;29.80;67.20
11497;DHT22;5805;51.542;7.230;2022-08-19T12:53:40;29.80;66.50
11497;DHT22;5805;51.542;7.230;2022-08-19T12:56:07;29.90;66.00
11497;DHT22;5805;51.542;7.230;2022-08-19T12:58:32;29.80;65.40
11497;DHT22;5805;51.542;7.230;2022-08-19T13:00:58;29.70;65.60
11497;DHT22;5805;51.542;7.230;2022-08-19T13:03:25;29.50;64.40
11497;DHT22;5805;51.542;7.230;2022-08-19T13:05:51;29.40;64.10
11497;DHT22;5805;51.542;7.230;2022-08-19T13:08:17;29.30;64.60
11497;DHT22;5805;51.542;7.230;2022-08-19T13:10:42;29.30;65.30
11497;DHT22;5805;51.542;7.230;2022-08-19T13:13:08;29.30;65.20
11497;DHT22;5805;51.542;7.230;2022-08-19T13:15:36;29.40;65.80
11497;DHT22;5805;51.542;7.230;2022-08-19T13:18:03;29.50;65.00
11497;DHT22;5805;51.542;7.230;2022-08-19T13:20:30;29.50;63.40
11497;DHT22;5805;51.542;7.230;2022-08-19T13:22:55;29.40;64.00
11497;DHT22;5805;51.542;7.230;2022-08-19T13:25:21;29.50;64.70
11497;DHT22;5805;51.542;7.230;2022-08-19T13:27:48;29.50;64.50
11497;DHT22;5805;51.542;7.230;2022-08-19T13:30:15;29.60;64.90
11497;DHT22;5805;51.542;7.230;2022-08-19T13:32:42;29.70;63.70
11497;DHT22;5805;51.542;7.230;2022-08-19T13:35:08;29.80;63.40
11497;DHT22;5805;51.542;7.230;2022-08-19T13:37:35;29.70;63.60
11497;DHT22;5805;51.542;7.230;2022-08-19T13:40:00;29.70;63.50
11497;DHT22;5805;51.542;7.230;2022-08-19T13:42:26;29.60;64.00
11497;DHT22;5805;51.542;7.230;2022-08-19T13:44:53;29.40;63.50
11497;DHT22;5805;51.542;7.230;2022-08-19T13:47:19;29.30;62.90
11497;DHT22;5805;51.542;7.230;2022-08-19T13:49:44;29.30;63.00
11497;DHT22;5805;51.542;7.230;2022-08-19T13:52:10;29.20;63.70
11497;DHT22;5805;51.542;7.230;2022-08-19T13:54:37;29.10;63.80
11497;DHT22;5805;51.542;7.230;2022-08-19T13:57:03;29.10;64.00
11497;DHT22;5805;51.542;7.230;2022-08-19T13:59:29;29.10;63.60
11497;DHT22;5805;51.542;7.230;2022-08-19T14:01:57;29.10;63.40
11497;DHT22;5805;51.542;7.230;2022-08-19T14:04:23;29.10;63.60
11497;DHT22;5805;51.542;7.230;2022-08-19T14:06:49;29.00;63.40
11497;DHT22;5805;51.542;7.230;2022-08-19T14:09:14;29.00;63.80
11497;DHT22;5805;51.542;7.230;2022-08-19T14:11:42;28.90;63.10
11497;DHT22;5805;51.542;7.230;2022-08-19T14:14:07;28.90;63.60
11497;DHT22;5805;51.542;7.230;2022-08-19T14:16:33;28.80;62.60
11497;DHT22;5805;51.542;7.230;2022-08-19T14:18:59;28.80;62.80
11497;DHT22;5805;51.542;7.230;2022-08-19T14:21:25;28.70;63.20
11497;DHT22;5805;51.542;7.230;2022-08-19T14:23:51;28.80;62.80
11497;DHT22;5805;51.542;7.230;2022-08-19T14:26:18;28.70;62.70
11497;DHT22;5805;51.542;7.230;2022-08-19T14:28:45;28.80;62.50
11497;DHT22;5805;51.542;7.230;2022-08-19T14:31:12;28.80;61.40
11497;DHT22;5805;51.542;7.230;2022-08-19T14:33:38;28.70;62.10
11497;DHT22;5805;51.542;7.230;2022-08-19T14:36:05;28.80;62.40
11497;DHT22;5805;51.542;7.230;2022-08-19T14:38:31;28.90;62.10
11497;DHT22;5805;51.542;7.230;2022-08-19T14:41:04;29.00;61.70
11497;DHT22;5805;51.542;7.230;2022-08-19T14:43:30;29.10;61.90
11497;DHT22;5805;51.542;7.230;2022-08-19T14:45:57;29.10;62.00
11497;DHT22;5805;51.542;7.230;2022-08-19T14:48:23;29.10;61.80
11497;DHT22;5805;51.542;7.230;2022-08-19T14:50:48;29.00;61.60
11497;DHT22;5805;51.542;7.230;2022-08-19T14:53:16;29.00;61.70
11497;DHT22;5805;51.542;7.230;2022-08-19T14:55:42;29.00;61.80
11497;DHT22;5805;51.542;7.230;2022-08-19T14:58:09;29.00;61.70
11497;DHT22;5805;51.542;7.230;2022-08-19T15:00:34;29.20;61.50
11497;DHT22;5805;51.542;7.230;2022-08-19T15:03:02;29.20;61.10
11497;DHT22;5805;51.542;7.230;2022-08-19T15:05:27;29.20;60.80
11497;DHT22;5805;51.542;7.230;2022-08-19T15:07:53;29.30;61.10
11497;DHT22;5805;51.542;7.230;2022-08-19T15:10:19;29.30;60.60
11497;DHT22;5805;51.542;7.230;2022-08-19T15:12:45;29.30;60.50
11497;DHT22;5805;51.542;7.230;2022-08-19T15:15:13;29.30;61.10
11497;DHT22;5805;51.542;7.230;2022-08-19T15:17:39;29.30;60.50
11497;DHT22;5805;51.542;7.230;2022-08-19T15:20:08;29.20;60.50
11497;DHT22;5805;51.542;7.230;2022-08-19T15:22:34;29.30;60.80
11497;DHT22;5805;51.542;7.230;2022-08-19T15:25:00;29.20;59.40
11497;DHT22;5805;51.542;7.230;2022-08-19T15:27:25;29.10;60.00
11497;DHT22;5805;51.542;7.230;2022-08-19T15:29:51;29.20;60.40
11497;DHT22;5805;51.542;7.230;2022-08-19T15:32:17;29.20;60.50
11497;DHT22;5805;51.542;7.230;2022-08-19T15:34:42;29.30;61.00
11497;DHT22;5805;51.542;7.230;2022-08-19T15:37:09;29.30;59.80
11497;DHT22;5805;51.542;7.230;2022-08-19T15:39:35;29.30;60.00
11497;DHT22;5805;51.542;7.230;2022-08-19T15:42:01;29.30;60.10